createdAt,value
2023-05-05T00:00:47.162Z,94996.63
2023-05-05T00:02:48.816Z,94994.53
2023-05-05T00:04:50.468Z,95000.16
2023-05-05T00:06:52.088Z,95001.47
2023-05-05T00:08:53.802Z,94990.78
2023-05-05T00:10:56.546Z,94994.47
2023-05-05T00:12:58.195Z,94995.00
2023-05-05T00:14:59.798Z,94985.75
2023-05-05T00:17:01.491Z,94986.78
2023-05-05T00:19:03.115Z,94983.22
2023-05-05T00:21:04.779Z,94981.00
2023-05-05T00:23:06.883Z,94981.06
2023-05-05T00:25:08.877Z,94983.06
2023-05-05T00:27:10.759Z,94985.72
2023-05-05T00:29:12.336Z,94987.34
2023-05-05T00:31:16.732Z,94984.47
2023-05-05T00:33:18.456Z,94984.19
2023-05-05T00:35:20.193Z,94984.72
2023-05-05T00:37:21.761Z,94990.81
2023-05-05T00:39:23.463Z,94989.16
2023-05-05T00:41:25.023Z,94990.59
2023-05-05T00:43:26.978Z,94986.00
2023-05-05T00:45:30.054Z,94994.06
2023-05-05T00:47:31.760Z,94994.75
2023-05-05T00:49:33.669Z,94993.72
2023-05-05T00:51:35.380Z,94995.41
2023-05-05T00:53:39.122Z,94986.53
2023-05-05T00:55:40.811Z,94994.28
2023-05-05T00:57:42.782Z,94991.50
2023-05-05T00:59:44.874Z,94983.13
2023-05-05T01:01:46.932Z,94989.56
2023-05-05T01:03:48.538Z,94984.84
2023-05-05T01:06:10.342Z,94983.34
2023-05-05T01:08:18.052Z,94988.31
2023-05-05T01:10:35.909Z,94985.03
2023-05-05T01:12:46.841Z,94983.06
2023-05-05T01:14:56.186Z,94979.44
2023-05-05T01:17:04.657Z,94987.16
2023-05-05T01:19:28.021Z,94977.63
2023-05-05T01:21:34.086Z,94979.44
2023-05-05T01:23:35.715Z,94986.50
2023-05-05T01:25:56.639Z,94984.69
2023-05-05T01:28:17.257Z,94977.28
2023-05-05T01:30:44.010Z,94982.06
2023-05-05T01:32:51.407Z,94983.69
2023-05-05T01:35:01.062Z,94979.59
2023-05-05T01:37:11.641Z,94981.41
2023-05-05T01:39:16.192Z,94981.50
2023-05-05T01:41:21.155Z,94978.25
2023-05-05T01:43:23.464Z,94974.00
2023-05-05T01:45:29.422Z,94976.94
2023-05-05T01:47:31.555Z,94977.09
2023-05-05T01:49:34.512Z,94973.09
2023-05-05T01:51:36.959Z,94964.03
2023-05-05T01:53:39.222Z,94958.50
2023-05-05T01:55:41.197Z,94959.72
2023-05-05T01:57:42.971Z,94967.25
2023-05-05T01:59:44.656Z,94955.63
2023-05-05T02:01:47.501Z,94961.41
2023-05-05T02:03:51.170Z,94958.44
2023-05-05T02:05:53.573Z,94958.31
2023-05-05T02:07:58.363Z,94957.16
2023-05-05T02:10:01.865Z,94960.16
2023-05-05T02:12:04.903Z,94962.09
2023-05-05T02:14:08.147Z,94953.56
2023-05-05T02:16:10.440Z,94962.72
2023-05-05T02:18:12.512Z,94963.50
2023-05-05T02:20:14.949Z,94956.97
2023-05-05T02:22:16.999Z,94955.69
2023-05-05T02:24:18.657Z,94958.00
2023-05-05T02:26:21.952Z,94963.06
2023-05-05T02:28:33.131Z,94956.53
2023-05-05T02:30:35.339Z,94958.69
2023-05-05T02:32:43.176Z,94956.91
2023-05-05T02:34:45.741Z,94956.72
2023-05-05T02:36:47.909Z,94953.81
2023-05-05T02:38:56.475Z,94958.72
2023-05-05T02:40:58.259Z,94956.78
2023-05-05T02:43:03.923Z,94962.84
2023-05-05T02:45:12.633Z,94953.34
2023-05-05T02:47:14.186Z,94955.97
2023-05-05T02:49:16.171Z,94954.97
2023-05-05T02:51:17.812Z,94954.81
2023-05-05T02:53:20.355Z,94957.97
2023-05-05T02:55:21.987Z,94951.44
2023-05-05T02:57:30.623Z,94950.44
2023-05-05T02:59:50.226Z,94951.44
2023-05-05T03:02:14.612Z,94953.06
2023-05-05T03:04:19.705Z,94956.50
2023-05-05T03:06:22.867Z,94954.53
2023-05-05T03:08:30.342Z,94956.50
2023-05-05T03:10:38.984Z,94959.59
2023-05-05T03:12:45.869Z,94959.28
2023-05-05T03:14:48.839Z,94958.97
2023-05-05T03:16:50.859Z,94955.38
2023-05-05T03:18:52.674Z,94951.91
2023-05-05T03:20:54.476Z,94955.81
2023-05-05T03:22:56.311Z,94950.63
2023-05-05T03:24:57.912Z,94948.63
2023-05-05T03:26:59.559Z,94947.66
2023-05-05T03:29:01.132Z,94954.91
2023-05-05T03:31:03.283Z,94953.16
2023-05-05T03:33:04.947Z,94956.13
2023-05-05T03:35:07.320Z,94959.78
2023-05-05T03:37:08.918Z,94947.97
2023-05-05T03:39:10.924Z,94951.75
2023-05-05T03:41:12.525Z,94953.25
2023-05-05T03:43:14.098Z,94948.03
2023-05-05T03:45:15.812Z,94945.59
2023-05-05T03:47:17.595Z,94950.53
2023-05-05T03:49:19.129Z,94947.06
2023-05-05T03:51:20.744Z,94948.56
2023-05-05T03:53:22.476Z,94956.78
2023-05-05T03:55:24.588Z,94964.88
2023-05-05T03:57:26.920Z,94960.31
2023-05-05T03:59:28.518Z,94956.72
2023-05-05T04:01:31.477Z,94958.88
2023-05-05T04:03:33.118Z,94958.81
2023-05-05T04:05:34.800Z,94966.75
2023-05-05T04:07:36.369Z,94969.69
2023-05-05T04:09:44.613Z,94970.63
2023-05-05T04:11:46.206Z,94971.63
2023-05-05T04:13:49.942Z,94971.81
2023-05-05T04:15:51.531Z,94972.41
2023-05-05T04:17:53.549Z,94979.88
2023-05-05T04:19:55.198Z,94981.03
2023-05-05T04:21:56.756Z,94980.78
2023-05-05T04:23:58.869Z,94981.31
2023-05-05T04:26:01.052Z,94981.47
2023-05-05T04:28:02.940Z,94981.09
2023-05-05T04:30:05.078Z,94981.91
2023-05-05T04:32:06.772Z,94984.06
2023-05-05T04:34:08.305Z,94993.16
2023-05-05T04:36:09.916Z,94989.88
2023-05-05T04:38:11.453Z,94994.06
2023-05-05T04:40:13.305Z,94994.59
2023-05-05T04:42:14.953Z,94990.88
2023-05-05T04:44:16.498Z,94992.66
2023-05-05T04:46:18.118Z,94991.34
2023-05-05T04:48:20.872Z,94994.63
2023-05-05T04:50:22.454Z,94989.75
2023-05-05T04:52:24.088Z,94995.16
2023-05-05T04:54:25.748Z,94994.03
2023-05-05T04:56:27.498Z,94993.66
2023-05-05T04:58:29.183Z,94993.16
2023-05-05T05:00:31.040Z,94990.22
2023-05-05T05:02:32.795Z,94995.94
2023-05-05T05:04:34.507Z,94993.44
2023-05-05T05:06:36.387Z,94989.25
2023-05-05T05:08:38.091Z,94993.06
2023-05-05T05:10:39.667Z,94996.06
2023-05-05T05:12:41.299Z,95000.72
2023-05-05T05:14:43.043Z,94999.28
2023-05-05T05:16:44.646Z,95005.78
2023-05-05T05:18:46.259Z,95002.34
2023-05-05T05:20:47.845Z,95005.66
2023-05-05T05:22:49.419Z,95008.13
2023-05-05T05:24:52.213Z,95001.09
2023-05-05T05:26:54.048Z,95004.38
2023-05-05T05:28:55.719Z,95010.28
2023-05-05T05:30:57.581Z,95014.59
2023-05-05T05:32:59.159Z,95005.88
2023-05-05T05:35:00.732Z,95008.84
2023-05-05T05:37:02.366Z,95019.31
2023-05-05T05:39:04.174Z,95018.00
2023-05-05T05:41:07.730Z,95010.28
2023-05-05T05:43:09.337Z,95014.06
2023-05-05T05:45:11.146Z,95016.03
2023-05-05T05:47:12.690Z,95011.13
2023-05-05T05:49:14.271Z,95012.75
2023-05-05T05:51:15.889Z,95014.03
2023-05-05T05:53:18.003Z,95001.75
2023-05-05T05:55:19.597Z,95020.66
2023-05-05T05:57:22.504Z,95024.75
2023-05-05T05:59:24.081Z,95020.28
2023-05-05T06:01:25.721Z,95021.84
2023-05-05T06:03:27.507Z,95015.97
2023-05-05T06:05:29.169Z,95012.41
2023-05-05T06:07:30.764Z,95013.75
2023-05-05T06:09:32.426Z,95020.50
2023-05-05T06:11:35.179Z,95012.78
2023-05-05T06:13:36.745Z,95020.63
2023-05-05T06:15:38.321Z,95019.16
2023-05-05T06:17:39.975Z,95017.34
2023-05-05T06:19:41.580Z,95022.09
2023-05-05T06:21:43.478Z,95015.69
2023-05-05T06:23:45.062Z,95017.16
2023-05-05T06:25:46.797Z,95027.88
2023-05-05T06:27:48.448Z,95027.38
2023-05-05T06:29:50.022Z,95020.81
2023-05-05T06:31:51.934Z,95020.28
2023-05-05T06:33:53.657Z,95026.81
2023-05-05T06:35:55.251Z,95023.19
2023-05-05T06:37:56.890Z,95028.09
2023-05-05T06:39:58.536Z,95017.84
2023-05-05T06:42:00.108Z,95023.56
2023-05-05T06:44:01.812Z,95020.63
2023-05-05T06:46:03.554Z,95020.59
2023-05-05T06:48:05.218Z,95014.03
2023-05-05T06:50:08.690Z,95015.84
2023-05-05T06:52:10.625Z,95019.09
2023-05-05T06:54:12.308Z,95010.03
2023-05-05T06:56:13.886Z,95011.53
2023-05-05T06:58:15.527Z,95014.66
2023-05-05T07:00:17.706Z,95008.03
2023-05-05T07:02:19.296Z,95012.16
2023-05-05T07:04:21.458Z,95010.19
2023-05-05T07:06:23.281Z,95014.63
2023-05-05T07:08:25.462Z,95008.91
2023-05-05T07:10:27.746Z,95016.03
2023-05-05T07:12:31.271Z,95008.50
2023-05-05T07:14:32.951Z,95011.75
2023-05-05T07:16:35.289Z,95005.31
2023-05-05T07:18:36.924Z,95012.72
2023-05-05T07:20:38.493Z,95009.13
2023-05-05T07:22:40.135Z,95008.94
2023-05-05T07:24:41.825Z,95011.56
2023-05-05T07:26:43.562Z,95005.50
2023-05-05T07:28:45.567Z,95000.56
2023-05-05T07:30:47.121Z,94991.91
2023-05-05T07:32:49.760Z,94988.88
2023-05-05T07:34:51.477Z,94989.59
2023-05-05T07:36:53.122Z,95001.19
2023-05-05T07:38:54.871Z,95000.91
2023-05-05T07:40:56.487Z,95007.88
2023-05-05T07:42:58.122Z,95006.63
2023-05-05T07:44:59.835Z,95006.25
2023-05-05T07:47:01.472Z,95001.09
2023-05-05T07:49:03.709Z,95001.13
2023-05-05T07:51:05.307Z,95001.34
2023-05-05T07:53:14.554Z,95010.28
2023-05-05T07:55:16.862Z,95001.41
2023-05-05T07:57:18.523Z,95003.94
2023-05-05T08:01:42.693Z,95012.22
2023-05-05T08:03:44.443Z,95007.31
2023-05-05T08:05:47.187Z,95003.53
2023-05-05T08:07:48.829Z,95005.38
2023-05-05T08:09:50.433Z,95002.88
2023-05-05T08:11:52.054Z,95005.81
2023-05-05T08:13:53.697Z,95001.28
2023-05-05T08:15:55.315Z,95003.66
2023-05-05T08:17:57.937Z,95002.41
2023-05-05T08:19:59.586Z,94994.00
2023-05-05T08:22:01.672Z,94995.00
2023-05-05T08:24:03.396Z,94989.84
2023-05-05T08:26:06.471Z,94986.75
2023-05-05T08:28:08.083Z,94986.00
2023-05-05T08:30:10.068Z,94981.47
2023-05-05T08:32:11.722Z,94984.50
2023-05-05T08:34:13.372Z,94973.56
2023-05-05T08:36:15.021Z,94969.69
2023-05-05T08:38:17.207Z,94978.97
2023-05-05T08:40:21.004Z,94971.22
2023-05-05T08:42:36.366Z,94980.72
2023-05-05T08:44:39.962Z,94983.91
2023-05-05T08:46:41.605Z,94982.97
2023-05-05T08:48:44.596Z,94981.88
2023-05-05T08:50:50.036Z,94971.16
2023-05-05T08:52:54.770Z,94968.97
2023-05-05T08:55:18.526Z,94968.75
2023-05-05T08:57:26.088Z,94971.75
2023-05-05T08:59:30.357Z,94964.19
2023-05-05T09:01:33.213Z,94966.94
2023-05-05T09:03:36.843Z,94970.31
2023-05-05T09:05:38.950Z,94977.66
2023-05-05T09:07:41.434Z,94967.25
2023-05-05T09:09:43.237Z,94971.69
2023-05-05T09:11:45.255Z,94970.44
2023-05-05T09:13:47.580Z,94973.06
2023-05-05T09:15:49.266Z,94968.50
2023-05-05T09:17:51.041Z,94972.13
2023-05-05T09:20:07.367Z,94965.41
2023-05-05T09:22:09.028Z,94967.94
2023-05-05T09:24:12.298Z,94970.03
2023-05-05T09:26:14.479Z,94964.75
2023-05-05T09:28:18.489Z,94968.31
2023-05-05T09:30:29.409Z,94963.56
2023-05-05T09:32:32.798Z,94962.50
2023-05-05T09:34:35.828Z,94959.00
2023-05-05T09:36:44.484Z,94966.41
2023-05-05T09:39:04.910Z,94958.84
2023-05-05T09:41:06.603Z,94961.00
2023-05-05T09:43:08.164Z,94952.22
2023-05-05T09:45:18.691Z,94956.59
2023-05-05T09:47:29.401Z,94953.03
2023-05-05T09:49:31.685Z,94957.97
2023-05-05T09:51:33.449Z,94962.06
2023-05-05T09:53:40.368Z,94960.16
2023-05-05T09:55:42.311Z,94951.13
2023-05-05T09:57:43.888Z,94948.94
2023-05-05T09:59:57.936Z,94956.03
2023-05-05T10:02:12.122Z,94950.50
2023-05-05T10:04:28.495Z,94946.41
2023-05-05T10:06:43.743Z,94948.94
2023-05-05T10:08:45.506Z,94951.84
2023-05-05T10:10:55.235Z,94957.34
2023-05-05T10:12:58.615Z,94937.19
2023-05-05T10:15:02.216Z,94941.81
2023-05-05T10:17:04.344Z,94940.16
2023-05-05T10:19:06.280Z,94925.84
2023-05-05T10:21:08.993Z,94933.00
2023-05-05T10:23:14.242Z,94931.88
2023-05-05T10:25:16.845Z,94929.31
2023-05-05T10:27:56.795Z,94928.47
2023-05-05T10:30:06.404Z,94942.19
2023-05-05T10:32:37.120Z,94935.28
2023-05-05T10:34:51.443Z,94936.72
2023-05-05T10:36:55.195Z,94919.06
2023-05-05T10:38:57.861Z,94925.97
2023-05-05T10:41:01.192Z,94932.88
2023-05-05T10:43:02.796Z,94932.63
2023-05-05T10:45:05.222Z,94923.22
2023-05-05T10:47:07.359Z,94923.56
2023-05-05T10:49:20.838Z,94926.34
2023-05-05T10:51:40.081Z,94932.25
2023-05-05T10:53:53.988Z,94924.13
2023-05-05T10:56:13.448Z,94930.75
2023-05-05T10:58:55.632Z,94929.25
2023-05-05T11:01:00.636Z,94916.13
2023-05-05T11:03:21.868Z,94933.28
2023-05-05T11:05:23.609Z,94924.78
2023-05-05T11:07:26.089Z,94923.09
2023-05-05T11:09:28.733Z,94933.69
2023-05-05T11:12:01.759Z,94910.28
2023-05-05T11:14:24.605Z,94910.81
2023-05-05T11:16:47.805Z,94920.00
2023-05-05T11:18:49.618Z,94921.16
2023-05-05T11:20:57.565Z,94921.53
2023-05-05T11:23:02.267Z,94918.38
2023-05-05T11:25:40.736Z,94926.59
2023-05-05T11:28:07.235Z,94917.53
2023-05-05T11:30:10.621Z,94908.25
2023-05-05T11:32:16.035Z,94906.53
2023-05-05T11:34:26.817Z,94901.28
2023-05-05T11:36:40.749Z,94890.47
2023-05-05T11:39:00.956Z,94898.81
2023-05-05T11:41:19.644Z,94896.44
2023-05-05T11:43:21.280Z,94900.63
2023-05-05T11:45:24.194Z,94896.38
2023-05-05T11:47:27.375Z,94905.56
2023-05-05T11:49:32.553Z,94893.50
2023-05-05T11:51:34.165Z,94887.88
2023-05-05T11:53:35.892Z,94886.72
2023-05-05T11:55:37.474Z,94880.22
2023-05-05T11:57:39.090Z,94878.38
2023-05-05T12:00:02.582Z,94881.84
2023-05-05T12:02:04.769Z,94878.09
2023-05-05T12:04:06.884Z,94877.34
2023-05-05T12:06:08.789Z,94880.31
2023-05-05T12:08:10.508Z,94878.22
2023-05-05T12:10:12.095Z,94877.81
2023-05-05T12:12:14.515Z,94887.06
2023-05-05T12:14:16.200Z,94866.28
2023-05-05T12:16:19.460Z,94873.22
2023-05-05T12:18:21.337Z,94870.63
2023-05-05T12:20:31.644Z,94862.34
2023-05-05T12:22:33.276Z,94863.34
2023-05-05T12:24:35.164Z,94850.00
2023-05-05T12:26:36.748Z,94854.41
2023-05-05T12:28:48.285Z,94853.66
2023-05-05T12:30:59.521Z,94850.16
2023-05-05T12:33:03.735Z,94846.88
2023-05-05T12:35:07.838Z,94848.88
2023-05-05T12:37:09.475Z,94847.41
2023-05-05T12:39:11.990Z,94853.75
2023-05-05T12:41:18.259Z,94850.75
2023-05-05T12:43:31.427Z,94853.09
2023-05-05T12:45:33.032Z,94846.88
2023-05-05T12:47:36.744Z,94839.94
2023-05-05T12:49:47.898Z,94843.00
2023-05-05T12:51:56.977Z,94843.31
2023-05-05T12:54:11.593Z,94853.91
2023-05-05T12:56:42.330Z,94835.22
2023-05-05T12:58:48.637Z,94830.59
2023-05-05T13:01:08.398Z,94827.47
2023-05-05T13:03:20.023Z,94840.81
2023-05-05T13:05:32.639Z,94830.09
2023-05-05T13:07:34.246Z,94837.44
2023-05-05T13:09:36.024Z,94827.69
2023-05-05T13:11:38.556Z,94832.22
2023-05-05T13:13:40.310Z,94823.53
2023-05-05T13:15:41.906Z,94834.50
2023-05-05T13:17:43.587Z,94821.47
2023-05-05T13:19:48.029Z,94819.63
2023-05-05T13:21:49.858Z,94818.81
2023-05-05T13:23:51.530Z,94813.53
2023-05-05T13:25:53.174Z,94813.19
2023-05-05T13:27:54.769Z,94823.31
2023-05-05T13:29:56.330Z,94827.22
2023-05-05T13:31:58.001Z,94819.28
2023-05-05T13:33:59.704Z,94819.13
2023-05-05T13:36:01.930Z,94824.63
2023-05-05T13:38:03.599Z,94820.16
2023-05-05T13:40:06.110Z,94819.91
2023-05-05T13:42:07.783Z,94816.38
2023-05-05T13:44:09.384Z,94820.09
2023-05-05T13:48:18.054Z,94812.91
2023-05-05T13:50:19.677Z,94816.91
2023-05-05T13:52:21.242Z,94817.31
2023-05-05T13:54:22.972Z,94830.94
2023-05-05T13:56:26.387Z,94806.38
2023-05-05T13:58:28.019Z,94821.22
2023-05-05T14:00:30.470Z,94824.19
2023-05-05T14:02:32.187Z,94827.66
2023-05-05T14:04:33.891Z,94818.28
2023-05-05T14:06:36.212Z,94821.13
2023-05-05T14:08:38.069Z,94820.22
2023-05-05T14:10:40.505Z,94813.38
2023-05-05T14:12:42.172Z,94812.03
2023-05-05T14:14:43.857Z,94811.72
2023-05-05T14:16:48.526Z,94813.88
2023-05-05T14:18:51.464Z,94812.31
2023-05-05T14:20:53.218Z,94811.59
2023-05-05T14:22:54.918Z,94810.66
2023-05-05T14:24:56.701Z,94819.22
2023-05-05T14:26:58.319Z,94812.41
2023-05-05T14:28:59.916Z,94803.47
2023-05-05T14:31:01.858Z,94805.44
2023-05-05T14:33:03.586Z,94802.09
2023-05-05T14:35:06.013Z,94809.69
2023-05-05T14:37:07.856Z,94803.66
2023-05-05T14:39:09.533Z,94796.97
2023-05-05T14:41:11.117Z,94803.28
2023-05-05T14:43:12.779Z,94801.28
2023-05-05T14:45:14.452Z,94803.94
2023-05-05T14:47:19.301Z,94807.38
2023-05-05T14:49:20.958Z,94805.66
2023-05-05T14:51:24.587Z,94801.13
2023-05-05T14:53:26.378Z,94792.06
2023-05-05T14:55:27.968Z,94795.31
2023-05-05T14:57:30.388Z,94791.50
2023-05-05T14:59:32.069Z,94804.09
2023-05-05T15:01:33.706Z,94802.66
2023-05-05T15:03:35.528Z,94803.00
2023-05-05T15:05:37.687Z,94809.91
2023-05-05T15:07:40.139Z,94799.06
2023-05-05T15:09:41.821Z,94799.63
2023-05-05T15:11:45.108Z,94802.06
2023-05-05T15:13:46.666Z,94804.56
2023-05-05T15:15:49.116Z,94806.28
2023-05-05T15:17:50.861Z,94804.16
2023-05-05T15:19:52.544Z,94805.69
2023-05-05T15:21:54.249Z,94801.91
2023-05-05T15:23:55.916Z,94805.19
2023-05-05T15:25:57.538Z,94797.75
2023-05-05T15:28:00.922Z,94797.69
2023-05-05T15:30:02.654Z,94803.03
2023-05-05T15:32:04.530Z,94800.56
2023-05-05T15:34:06.319Z,94800.19
2023-05-05T15:36:08.363Z,94796.13
2023-05-05T15:38:10.118Z,94792.25
2023-05-05T15:40:12.154Z,94792.06
2023-05-05T15:42:13.693Z,94792.00
2023-05-05T15:44:15.393Z,94784.38
2023-05-05T15:46:17.111Z,94783.06
2023-05-05T15:48:18.670Z,94789.06
2023-05-05T15:50:20.330Z,94785.84
2023-05-05T15:52:22.204Z,94784.09
2023-05-05T15:54:23.852Z,94778.38
2023-05-05T15:56:27.430Z,94789.19
2023-05-05T15:58:28.904Z,94783.03
2023-05-05T16:00:31.437Z,94785.38
2023-05-05T16:02:33.145Z,94783.56
2023-05-05T16:04:34.742Z,94790.38
2023-05-05T16:06:36.402Z,94786.50
2023-05-05T16:08:38.352Z,94785.91
2023-05-05T16:10:39.978Z,94787.16
2023-05-05T16:12:41.598Z,94789.00
2023-05-05T16:14:43.276Z,94791.25
2023-05-05T16:16:44.918Z,94782.25
2023-05-05T16:18:46.624Z,94783.06
2023-05-05T16:20:48.220Z,94776.28
2023-05-05T16:22:49.778Z,94781.81
2023-05-05T16:24:51.607Z,94784.91
2023-05-05T16:26:53.174Z,94781.41
2023-05-05T16:28:54.820Z,94785.06
2023-05-05T16:30:56.503Z,94781.06
2023-05-05T16:32:58.167Z,94778.50
2023-05-05T16:34:59.851Z,94777.34
2023-05-05T16:37:01.563Z,94786.63
2023-05-05T16:39:03.313Z,94787.91
2023-05-05T16:41:06.741Z,94785.44
2023-05-05T16:43:08.366Z,94789.19
2023-05-05T16:45:10.643Z,94784.72
2023-05-05T16:47:12.367Z,94779.66
2023-05-05T16:49:13.893Z,94778.84
2023-05-05T16:51:15.479Z,94778.22
2023-05-05T16:53:17.176Z,94782.13
2023-05-05T16:55:18.845Z,94785.16
2023-05-05T16:57:20.565Z,94785.94
2023-05-05T16:59:22.237Z,94790.16
2023-05-05T17:01:23.968Z,94781.50
2023-05-05T17:03:25.663Z,94784.00
2023-05-05T17:05:27.357Z,94790.50
2023-05-05T17:07:29.000Z,94789.44
2023-05-05T17:09:30.740Z,94785.50
2023-05-05T17:11:32.271Z,94793.44
2023-05-05T17:13:33.928Z,94789.06
2023-05-05T17:15:36.258Z,94792.19
2023-05-05T17:17:37.917Z,94789.91
2023-05-05T17:19:39.587Z,94791.41
2023-05-05T17:21:42.887Z,94797.09
2023-05-05T17:23:44.492Z,94805.91
2023-05-05T17:25:46.126Z,94802.66
2023-05-05T17:27:47.670Z,94802.56
2023-05-05T17:29:49.219Z,94801.13
2023-05-05T17:31:50.984Z,94812.88
2023-05-05T17:33:52.528Z,94811.78
2023-05-05T17:35:54.612Z,94815.16
2023-05-05T17:37:56.797Z,94817.25
2023-05-05T17:39:58.375Z,94816.19
2023-05-05T17:42:00.003Z,94807.28
2023-05-05T17:44:01.587Z,94811.66
2023-05-05T17:46:03.233Z,94819.81
2023-05-05T17:48:05.202Z,94815.81
2023-05-05T17:50:07.210Z,94817.63
2023-05-05T17:52:08.781Z,94814.75
2023-05-05T17:54:10.393Z,94816.63
2023-05-05T17:56:12.011Z,94819.56
2023-05-05T17:58:13.816Z,94818.66
2023-05-05T18:00:15.934Z,94824.03
2023-05-05T18:02:19.044Z,94826.13
2023-05-05T18:04:20.917Z,94825.56
2023-05-05T18:06:22.526Z,94821.56
2023-05-05T18:08:24.171Z,94818.28
2023-05-05T18:10:25.801Z,94821.31
2023-05-05T18:12:27.354Z,94820.84
2023-05-05T18:14:28.999Z,94822.13
2023-05-05T18:16:31.094Z,94826.28
2023-05-05T18:18:32.755Z,94830.75
2023-05-05T18:20:34.431Z,94830.94
2023-05-05T18:22:36.538Z,94840.50
2023-05-05T18:24:38.168Z,94836.03
2023-05-05T18:26:39.771Z,94841.13
2023-05-05T18:28:41.338Z,94839.56
2023-05-05T18:30:42.993Z,94840.28
2023-05-05T18:32:44.626Z,94851.41
2023-05-05T18:34:46.392Z,94842.75
2023-05-05T18:36:51.376Z,94841.00
2023-05-05T18:38:53.612Z,94845.56
2023-05-05T18:40:55.289Z,94844.00
2023-05-05T18:42:56.976Z,94849.53
2023-05-05T18:44:58.534Z,94844.88
2023-05-05T18:47:00.267Z,94855.44
2023-05-05T18:49:02.090Z,94851.38
2023-05-05T18:51:04.690Z,94846.47
2023-05-05T18:53:06.367Z,94847.19
2023-05-05T18:55:08.803Z,94856.75
2023-05-05T18:57:10.540Z,94846.09
2023-05-05T18:59:12.142Z,94852.94
2023-05-05T19:01:13.786Z,94848.84
2023-05-05T19:03:15.542Z,94851.69
2023-05-05T19:05:17.205Z,94848.84
2023-05-05T19:07:31.341Z,94847.00
2023-05-05T19:09:36.508Z,94847.00
2023-05-05T19:11:41.785Z,94857.31
2023-05-05T19:13:43.483Z,94856.03
2023-05-05T19:15:45.163Z,94851.13
2023-05-05T19:17:47.477Z,94845.41
2023-05-05T19:19:49.197Z,94848.41
2023-05-05T19:21:50.961Z,94846.34
2023-05-05T19:23:52.666Z,94853.78
2023-05-05T19:25:54.680Z,94849.06
2023-05-05T19:27:56.308Z,94844.50
2023-05-05T19:29:57.920Z,94856.03
2023-05-05T19:31:59.569Z,94856.25
2023-05-05T19:34:02.923Z,94854.59
2023-05-05T19:36:04.722Z,94864.31
2023-05-05T19:38:06.244Z,94861.50
2023-05-05T19:40:08.715Z,94857.03
2023-05-05T19:42:10.687Z,94860.31
2023-05-05T19:44:12.400Z,94849.94
2023-05-05T19:46:14.732Z,94849.94
2023-05-05T19:48:16.431Z,94855.41
2023-05-05T19:50:18.090Z,94849.69
2023-05-05T19:52:22.665Z,94852.88
2023-05-05T19:54:24.849Z,94850.56
2023-05-05T19:56:26.527Z,94848.84
2023-05-05T19:58:28.082Z,94838.66
2023-05-05T20:00:29.721Z,94847.38
2023-05-05T20:02:33.226Z,94847.56
2023-05-05T20:04:35.943Z,94844.09
2023-05-05T20:06:37.639Z,94843.28
2023-05-05T20:08:39.267Z,94844.09
2023-05-05T20:10:40.846Z,94845.25
2023-05-05T20:12:47.901Z,94840.34
2023-05-05T20:14:49.808Z,94840.53
2023-05-05T20:16:51.765Z,94843.69
2023-05-05T20:18:53.449Z,94847.50
2023-05-05T20:20:55.172Z,94843.78
2023-05-05T20:22:56.795Z,94839.22
2023-05-05T20:24:58.358Z,94840.38
2023-05-05T20:27:00.024Z,94833.66
2023-05-05T20:29:01.775Z,94836.03
2023-05-05T20:31:03.633Z,94835.56
2023-05-05T20:33:05.372Z,94834.91
2023-05-05T20:35:07.663Z,94837.72
2023-05-05T20:37:10.116Z,94832.34
2023-05-05T20:39:16.405Z,94827.06
2023-05-05T20:41:18.091Z,94825.34
2023-05-05T20:43:19.764Z,94821.59
2023-05-05T20:45:21.531Z,94824.84
2023-05-05T20:47:24.178Z,94828.47
2023-05-05T20:49:26.244Z,94819.59
2023-05-05T20:51:31.525Z,94815.31
2023-05-05T20:53:33.314Z,94817.94
2023-05-05T20:55:35.104Z,94825.03
2023-05-05T20:57:36.669Z,94818.31
2023-05-05T20:59:38.329Z,94820.47
2023-05-05T21:01:40.032Z,94826.09
2023-05-05T21:03:41.644Z,94825.44
2023-05-05T21:05:43.431Z,94818.72
2023-05-05T21:07:45.056Z,94826.63
2023-05-05T21:09:46.898Z,94820.06
2023-05-05T21:11:48.855Z,94821.69
2023-05-05T21:13:50.474Z,94822.88
2023-05-05T21:15:52.026Z,94823.22
2023-05-05T21:17:53.659Z,94822.63
2023-05-05T21:19:56.196Z,94825.44
2023-05-05T21:21:59.198Z,94820.53
2023-05-05T21:24:01.274Z,94818.53
2023-05-05T21:26:03.205Z,94820.84
2023-05-05T21:28:04.980Z,94818.59
2023-05-05T21:30:09.382Z,94819.22
2023-05-05T21:32:12.894Z,94812.50
2023-05-05T21:34:14.547Z,94817.47
2023-05-05T21:36:17.626Z,94817.28
2023-05-05T21:38:19.203Z,94820.56
2023-05-05T21:40:20.760Z,94815.13
2023-05-05T21:42:22.330Z,94817.25
2023-05-05T21:44:25.728Z,94816.44
2023-05-05T21:46:27.488Z,94810.97
2023-05-05T21:48:29.273Z,94809.34
2023-05-05T21:50:30.848Z,94811.34
2023-05-05T21:52:32.468Z,94810.31
2023-05-05T21:54:34.002Z,94812.31
2023-05-05T21:56:36.389Z,94809.03
2023-05-05T21:58:38.052Z,94805.19
2023-05-05T22:00:41.359Z,94810.63
2023-05-05T22:02:45.114Z,94804.53
2023-05-05T22:04:48.823Z,94805.72
2023-05-05T22:06:50.488Z,94805.50
2023-05-05T22:08:52.155Z,94807.16
2023-05-05T22:10:53.751Z,94804.81
2023-05-05T22:12:55.531Z,94808.09
2023-05-05T22:14:57.246Z,94820.13
2023-05-05T22:16:59.856Z,94809.44
2023-05-05T22:19:01.662Z,94811.63
2023-05-05T22:21:03.819Z,94805.50
2023-05-05T22:23:05.407Z,94806.00
2023-05-05T22:25:07.566Z,94807.28
2023-05-05T22:27:10.408Z,94805.84
2023-05-05T22:29:12.004Z,94801.91
2023-05-05T22:31:13.723Z,94809.00
2023-05-05T22:33:15.738Z,94804.88
2023-05-05T22:35:17.818Z,94797.63
2023-05-05T22:37:19.348Z,94802.56
2023-05-05T22:39:20.913Z,94802.03
2023-05-05T22:41:22.529Z,94795.13
2023-05-05T22:43:24.148Z,94801.22
2023-05-05T22:45:26.258Z,94798.38
2023-05-05T22:47:27.928Z,94802.19
2023-05-05T22:49:29.535Z,94801.09
2023-05-05T22:51:31.781Z,94806.16
2023-05-05T22:53:33.354Z,94801.09
2023-05-05T22:55:34.953Z,94796.00
2023-05-05T22:57:36.621Z,94796.97
2023-05-05T22:59:38.738Z,94792.22
2023-05-05T23:01:40.381Z,94793.13
2023-05-05T23:03:42.013Z,94793.84
2023-05-05T23:05:43.607Z,94793.75
2023-05-05T23:07:45.227Z,94800.06
2023-05-05T23:09:47.398Z,94792.53
2023-05-05T23:11:48.969Z,94791.84
2023-05-05T23:13:50.569Z,94781.47
2023-05-05T23:15:52.161Z,94775.06
2023-05-05T23:17:53.784Z,94775.53
2023-05-05T23:19:55.588Z,94773.56
2023-05-05T23:21:57.241Z,94768.31
2023-05-05T23:23:58.886Z,94766.66
2023-05-05T23:26:00.471Z,94760.91
2023-05-05T23:28:02.039Z,94758.13
2023-05-05T23:30:03.820Z,94767.81
2023-05-05T23:32:05.845Z,94772.59
2023-05-05T23:34:07.408Z,94771.16
2023-05-05T23:36:09.271Z,94776.03
2023-05-05T23:38:10.813Z,94783.34
2023-05-05T23:40:12.392Z,94781.78
2023-05-05T23:42:13.938Z,94778.50
2023-05-05T23:44:15.523Z,94778.34
2023-05-05T23:46:17.181Z,94774.94
2023-05-05T23:48:18.708Z,94773.03
2023-05-05T23:50:20.270Z,94766.31
2023-05-05T23:52:22.639Z,94766.31
2023-05-05T23:54:24.253Z,94759.78
2023-05-05T23:56:26.352Z,94766.66
2023-05-05T23:58:27.981Z,94751.75
